createdAt,value
2022-10-09T00:01:27.069Z,83.43
2022-10-09T00:03:54.826Z,83.76
2022-10-09T00:06:25.386Z,83.53
2022-10-09T00:08:51.835Z,83.34
2022-10-09T00:11:21.908Z,83.26
2022-10-09T00:13:49.480Z,83.53
2022-10-09T00:16:17.663Z,83.56
2022-10-09T00:18:43.939Z,83.73
2022-10-09T00:21:22.315Z,83.55
2022-10-09T00:23:49.534Z,83.44
2022-10-09T00:26:16.437Z,83.43
2022-10-09T00:28:42.667Z,83.41
2022-10-09T00:31:10.370Z,83.75
2022-10-09T00:33:37.434Z,83.71
2022-10-09T00:36:05.381Z,83.62
2022-10-09T00:38:32.178Z,83.51
2022-10-09T00:40:58.333Z,83.51
2022-10-09T00:43:48.118Z,83.37
2022-10-09T00:46:28.931Z,83.62
2022-10-09T00:49:29.265Z,83.95
2022-10-09T00:51:57.775Z,84.17
2022-10-09T00:54:28.479Z,84.09
2022-10-09T00:56:54.979Z,83.73
2022-10-09T00:59:21.587Z,83.77
2022-10-09T01:01:47.858Z,83.89
2022-10-09T01:04:14.473Z,83.88
2022-10-09T01:06:40.567Z,84.24
2022-10-09T01:09:19.612Z,84.58
2022-10-09T01:11:51.994Z,84.68
2022-10-09T01:14:27.074Z,84.89
2022-10-09T01:17:11.508Z,84.57
2022-10-09T01:20:11.277Z,84.90
2022-10-09T01:23:03.213Z,84.60
2022-10-09T01:25:53.883Z,84.34
2022-10-09T01:28:23.127Z,84.69
2022-10-09T01:30:49.916Z,84.91
2022-10-09T01:33:16.978Z,84.82
2022-10-09T01:35:45.942Z,85.17
2022-10-09T01:38:14.253Z,85.20
2022-10-09T01:40:41.208Z,84.63
2022-10-09T01:43:07.450Z,84.39
2022-10-09T01:45:42.716Z,84.16
2022-10-09T01:48:14.001Z,84.76
2022-10-09T01:50:47.326Z,84.99
2022-10-09T01:53:18.868Z,85.32
2022-10-09T01:55:47.988Z,85.47
2022-10-09T01:58:18.668Z,85.18
2022-10-09T02:01:07.470Z,85.08
2022-10-09T02:03:36.269Z,85.19
2022-10-09T02:06:08.481Z,85.07
2022-10-09T02:08:36.794Z,85.09
2022-10-09T02:11:03.783Z,85.47
2022-10-09T02:13:31.866Z,85.57
2022-10-09T02:16:21.069Z,85.62
2022-10-09T02:19:00.614Z,85.51
2022-10-09T02:21:35.241Z,85.60
2022-10-09T02:24:03.479Z,85.17
2022-10-09T02:26:29.677Z,85.39
2022-10-09T02:28:57.046Z,85.72
2022-10-09T02:31:26.999Z,85.74
2022-10-09T02:33:57.939Z,85.81
2022-10-09T02:36:25.366Z,85.79
2022-10-09T02:38:53.310Z,85.73
2022-10-09T02:41:21.750Z,85.92
2022-10-09T02:43:48.146Z,85.84
2022-10-09T02:46:14.619Z,85.87
2022-10-09T02:48:40.836Z,86.51
2022-10-09T02:51:06.951Z,86.34
2022-10-09T02:53:33.064Z,86.19
2022-10-09T02:55:59.468Z,86.13
2022-10-09T02:58:25.975Z,85.60
2022-10-09T03:00:53.188Z,86.26
2022-10-09T03:03:19.981Z,86.14
2022-10-09T03:05:46.583Z,86.45
2022-10-09T03:08:13.116Z,86.38
2022-10-09T03:10:40.119Z,86.65
2022-10-09T03:13:06.580Z,86.43
2022-10-09T03:15:34.620Z,86.34
2022-10-09T03:18:01.214Z,86.40
2022-10-09T03:20:29.794Z,86.48
2022-10-09T03:22:56.682Z,86.34
2022-10-09T03:25:23.088Z,86.45
2022-10-09T03:27:49.413Z,86.77
2022-10-09T03:30:15.620Z,86.72
2022-10-09T03:32:41.794Z,86.70
2022-10-09T03:35:08.512Z,86.41
2022-10-09T03:37:34.666Z,86.32
2022-10-09T03:40:00.890Z,86.12
2022-10-09T03:42:27.045Z,86.37
2022-10-09T03:44:53.268Z,87.04
2022-10-09T03:47:19.460Z,86.45
2022-10-09T03:49:45.582Z,86.51
2022-10-09T03:52:11.871Z,86.52
2022-10-09T03:54:38.075Z,86.22
2022-10-09T03:57:04.193Z,86.26
2022-10-09T03:59:30.427Z,86.63
2022-10-09T04:01:56.738Z,86.45
2022-10-09T04:04:22.900Z,86.57
2022-10-09T04:06:49.274Z,86.45
2022-10-09T04:09:15.409Z,86.40
2022-10-09T04:11:41.601Z,86.15
2022-10-09T04:14:07.789Z,86.51
2022-10-09T04:16:33.947Z,86.60
2022-10-09T04:19:00.206Z,86.73
2022-10-09T04:21:26.557Z,86.32
2022-10-09T04:23:54.128Z,86.17
2022-10-09T04:26:20.604Z,86.08
2022-10-09T04:28:46.836Z,85.97
2022-10-09T04:31:13.263Z,86.23
2022-10-09T04:33:39.466Z,86.30
2022-10-09T04:36:06.468Z,86.27
2022-10-09T04:38:32.618Z,85.69
2022-10-09T04:41:04.943Z,85.62
2022-10-09T04:43:33.112Z,85.64
2022-10-09T04:46:04.401Z,86.10
2022-10-09T04:48:30.603Z,85.75
2022-10-09T04:50:57.074Z,85.67
2022-10-09T04:53:23.232Z,85.73
2022-10-09T04:55:49.396Z,85.68
2022-10-09T04:58:15.591Z,85.68
2022-10-09T05:00:44.236Z,85.50
2022-10-09T05:03:11.443Z,85.28
2022-10-09T05:05:38.092Z,85.42
2022-10-09T05:08:04.703Z,85.21
2022-10-09T05:10:32.069Z,85.76
2022-10-09T05:12:59.186Z,85.66
2022-10-09T05:15:25.462Z,85.63
2022-10-09T05:17:51.611Z,85.39
2022-10-09T05:20:17.811Z,85.40
2022-10-09T05:22:44.654Z,85.66
2022-10-09T05:25:10.817Z,85.65
2022-10-09T05:27:36.988Z,85.34
2022-10-09T05:30:05.735Z,85.45
2022-10-09T05:32:32.094Z,85.19
2022-10-09T05:34:58.278Z,85.34
2022-10-09T05:37:24.422Z,85.32
2022-10-09T05:39:50.516Z,85.22
2022-10-09T05:42:16.678Z,84.84
2022-10-09T05:44:42.822Z,84.65
2022-10-09T05:47:08.944Z,85.02
2022-10-09T05:49:35.114Z,85.23
2022-10-09T05:52:01.242Z,85.21
2022-10-09T05:54:27.521Z,85.26
2022-10-09T05:56:53.659Z,85.13
2022-10-09T05:59:20.013Z,85.04
2022-10-09T06:01:49.003Z,84.97
2022-10-09T06:04:18.720Z,84.73
2022-10-09T06:06:47.638Z,84.53
2022-10-09T06:09:21.357Z,84.75
2022-10-09T06:11:48.427Z,84.69
2022-10-09T06:14:14.687Z,84.65
2022-10-09T06:16:43.456Z,84.59
2022-10-09T06:19:12.349Z,84.23
2022-10-09T06:21:38.670Z,84.27
2022-10-09T06:24:06.105Z,84.47
2022-10-09T06:26:32.918Z,84.59
2022-10-09T06:29:01.312Z,84.27
2022-10-09T06:31:30.285Z,84.20
2022-10-09T06:33:58.810Z,84.06
2022-10-09T06:36:27.842Z,84.30
2022-10-09T06:38:55.096Z,84.33
2022-10-09T06:41:23.561Z,83.89
2022-10-09T06:43:57.657Z,83.53
2022-10-09T06:46:27.922Z,83.43
2022-10-09T06:48:54.545Z,83.13
2022-10-09T06:51:22.784Z,83.23
2022-10-09T06:53:52.015Z,83.19
2022-10-09T06:56:20.580Z,82.83
2022-10-09T06:58:46.799Z,82.68
2022-10-09T07:01:16.018Z,82.49
2022-10-09T07:03:44.610Z,82.52
2022-10-09T07:06:29.867Z,82.74
2022-10-09T07:08:58.782Z,82.80
2022-10-09T07:11:27.736Z,82.49
2022-10-09T07:13:56.752Z,82.32
2022-10-09T07:16:26.220Z,81.81
2022-10-09T07:18:54.385Z,81.61
2022-10-09T07:21:21.148Z,81.70
2022-10-09T07:23:47.802Z,81.86
2022-10-09T07:26:15.222Z,81.65
2022-10-09T07:28:42.763Z,81.67
2022-10-09T07:31:10.102Z,81.37
2022-10-09T07:33:36.952Z,81.18
2022-10-09T07:36:05.389Z,81.16
2022-10-09T07:38:32.280Z,81.46
2022-10-09T07:41:00.957Z,81.66
2022-10-09T07:43:27.550Z,81.36
2022-10-09T07:45:58.766Z,81.15
2022-10-09T07:48:25.038Z,80.54
2022-10-09T07:50:51.372Z,80.35
2022-10-09T07:53:17.615Z,80.30
2022-10-09T07:55:45.946Z,80.46
2022-10-09T07:58:16.328Z,80.56
2022-10-09T08:00:43.451Z,80.20
2022-10-09T08:03:10.272Z,79.56
2022-10-09T08:05:36.475Z,79.46
2022-10-09T08:08:02.735Z,78.86
2022-10-09T08:10:30.261Z,78.52
2022-10-09T08:12:56.464Z,78.19
2022-10-09T08:15:22.764Z,78.44
2022-10-09T08:17:51.912Z,77.88
2022-10-09T08:20:18.276Z,78.18
2022-10-09T08:22:44.457Z,78.05
2022-10-09T08:25:10.653Z,77.44
2022-10-09T08:27:36.797Z,76.80
2022-10-09T08:30:03.605Z,76.65
2022-10-09T08:32:29.823Z,76.96
2022-10-09T08:34:56.005Z,77.08
2022-10-09T08:37:22.177Z,76.90
2022-10-09T08:39:48.379Z,76.34
2022-10-09T08:42:41.835Z,75.72
2022-10-09T08:45:16.182Z,75.11
2022-10-09T08:48:05.796Z,73.99
2022-10-09T08:50:37.350Z,73.91
2022-10-09T08:53:30.984Z,74.21
2022-10-09T08:56:00.429Z,74.19
2022-10-09T08:58:36.216Z,74.26
2022-10-09T09:01:45.669Z,74.43
2022-10-09T09:04:45.141Z,73.41
2022-10-09T09:07:33.481Z,73.55
2022-10-09T09:10:12.455Z,73.46
2022-10-09T09:13:05.640Z,73.66
2022-10-09T09:15:48.388Z,72.70
2022-10-09T09:18:23.479Z,72.57
2022-10-09T09:21:03.715Z,72.41
2022-10-09T09:23:36.254Z,71.40
2022-10-09T09:26:02.742Z,70.66
2022-10-09T09:28:33.068Z,71.00
2022-10-09T09:31:05.865Z,70.89
2022-10-09T09:33:46.409Z,70.51
2022-10-09T09:36:27.501Z,70.47
2022-10-09T09:39:35.410Z,71.24
2022-10-09T09:41:42.022Z,71.39
2022-10-09T09:44:13.160Z,70.98
2022-10-09T09:46:39.811Z,70.02
2022-10-09T09:49:22.970Z,70.56
2022-10-09T09:51:50.254Z,70.24
2022-10-09T09:54:27.966Z,69.97
2022-10-09T09:57:13.037Z,69.48
2022-10-09T09:59:43.300Z,69.43
2022-10-09T10:02:23.232Z,69.26
2022-10-09T10:04:53.688Z,69.15
2022-10-09T10:07:34.445Z,69.84
2022-10-09T10:10:26.073Z,69.91
2022-10-09T10:12:57.086Z,69.98
2022-10-09T10:15:33.215Z,69.80
2022-10-09T10:18:05.654Z,70.05
2022-10-09T10:20:42.624Z,69.80
2022-10-09T10:23:32.009Z,70.05
2022-10-09T10:26:02.527Z,70.41
2022-10-09T10:28:35.456Z,70.46
2022-10-09T10:31:06.016Z,70.37
2022-10-09T10:33:35.614Z,70.01
2022-10-09T10:36:02.057Z,70.07
2022-10-09T10:38:48.545Z,70.25
2022-10-09T10:41:28.641Z,70.36
2022-10-09T10:44:06.252Z,70.50
2022-10-09T10:46:52.896Z,70.94
2022-10-09T10:49:21.570Z,70.82
2022-10-09T10:52:09.177Z,70.96
2022-10-09T10:54:39.334Z,71.37
2022-10-09T10:57:20.332Z,71.88
2022-10-09T10:59:49.319Z,71.90
2022-10-09T11:02:41.067Z,71.48
2022-10-09T11:05:26.363Z,71.37
2022-10-09T11:08:07.209Z,71.01
2022-10-09T11:10:53.335Z,70.67
2022-10-09T11:13:29.791Z,70.29
2022-10-09T11:16:23.815Z,70.18
2022-10-09T11:19:14.361Z,69.99
2022-10-09T11:21:43.473Z,70.30
2022-10-09T11:24:26.453Z,70.47
2022-10-09T11:27:24.746Z,70.51
2022-10-09T11:29:57.918Z,70.60
2022-10-09T11:32:53.609Z,70.40
2022-10-09T11:35:22.709Z,70.45
2022-10-09T11:37:58.013Z,70.40
2022-10-09T11:40:28.327Z,70.07
2022-10-09T11:43:03.195Z,69.86
2022-10-09T11:45:57.675Z,69.21
2022-10-09T11:48:42.033Z,68.58
2022-10-09T11:51:18.755Z,68.83
2022-10-09T11:53:46.056Z,68.92
2022-10-09T11:56:24.872Z,69.05
2022-10-09T11:59:04.580Z,68.46
2022-10-09T12:01:37.213Z,67.88
2022-10-09T12:04:32.289Z,65.78
2022-10-09T12:07:08.629Z,65.47
2022-10-09T12:09:48.059Z,64.73
2022-10-09T12:12:17.914Z,64.70
2022-10-09T12:14:47.860Z,64.46
2022-10-09T12:17:23.321Z,64.22
2022-10-09T12:19:53.316Z,64.36
2022-10-09T12:22:26.648Z,64.67
2022-10-09T12:24:56.373Z,64.27
2022-10-09T12:27:52.005Z,64.53
2022-10-09T12:30:21.745Z,65.39
2022-10-09T12:33:15.531Z,65.73
2022-10-09T12:35:45.909Z,66.40
2022-10-09T12:38:25.985Z,66.73
2022-10-09T12:40:55.026Z,66.39
2022-10-09T12:43:23.129Z,66.63
2022-10-09T12:45:51.434Z,66.56
2022-10-09T12:48:21.518Z,66.63
2022-10-09T12:50:48.682Z,66.50
2022-10-09T12:53:20.643Z,66.85
2022-10-09T12:55:50.555Z,66.40
2022-10-09T12:58:23.716Z,66.52
2022-10-09T13:00:53.942Z,66.13
2022-10-09T13:03:33.478Z,65.69
2022-10-09T13:06:01.233Z,65.61
2022-10-09T13:08:31.799Z,64.70
2022-10-09T13:11:19.723Z,64.33
2022-10-09T13:13:50.815Z,64.58
2022-10-09T13:16:17.356Z,64.64
2022-10-09T13:18:55.009Z,64.35
2022-10-09T13:21:26.627Z,64.48
2022-10-09T13:23:55.776Z,64.65
2022-10-09T13:26:28.752Z,64.94
2022-10-09T13:28:57.519Z,64.88
2022-10-09T13:31:25.573Z,65.11
2022-10-09T13:33:51.977Z,65.29
2022-10-09T13:36:19.290Z,65.32
2022-10-09T13:38:46.817Z,65.33
2022-10-09T13:41:19.912Z,65.58
2022-10-09T13:43:47.425Z,65.95
2022-10-09T13:46:13.727Z,66.12
2022-10-09T13:48:39.934Z,66.40
2022-10-09T13:51:06.240Z,66.47
2022-10-09T13:53:32.778Z,66.33
2022-10-09T13:56:00.959Z,66.22
2022-10-09T13:58:27.686Z,66.41
2022-10-09T14:00:53.989Z,66.53
2022-10-09T14:03:20.621Z,66.59
2022-10-09T14:05:46.803Z,66.68
2022-10-09T14:08:13.074Z,67.36
2022-10-09T14:10:43.264Z,68.12
2022-10-09T14:13:10.428Z,68.18
2022-10-09T14:15:42.574Z,67.86
2022-10-09T14:18:08.914Z,67.70
2022-10-09T14:20:35.378Z,67.31
2022-10-09T14:23:01.564Z,67.15
2022-10-09T14:25:27.966Z,67.03
2022-10-09T14:27:54.453Z,67.28
2022-10-09T14:30:20.648Z,67.62
2022-10-09T14:32:47.184Z,67.57
2022-10-09T14:35:16.964Z,67.64
2022-10-09T14:37:46.886Z,67.97
2022-10-09T14:40:13.165Z,68.26
2022-10-09T14:42:39.876Z,68.25
2022-10-09T14:45:07.492Z,68.59
2022-10-09T14:47:33.838Z,68.71
2022-10-09T14:50:00.044Z,68.99
2022-10-09T14:52:26.314Z,69.21
2022-10-09T14:54:53.228Z,69.02
2022-10-09T14:57:19.447Z,69.38
2022-10-09T14:59:45.762Z,70.43
2022-10-09T15:02:14.470Z,70.41
2022-10-09T15:04:40.848Z,70.40
2022-10-09T15:07:07.217Z,70.39
2022-10-09T15:09:33.430Z,70.62
2022-10-09T15:11:59.637Z,70.42
2022-10-09T15:14:25.860Z,71.01
2022-10-09T15:16:52.071Z,71.04
2022-10-09T15:19:18.376Z,71.19
2022-10-09T15:21:44.658Z,71.46
2022-10-09T15:24:11.028Z,71.79
2022-10-09T15:26:37.945Z,72.14
2022-10-09T15:29:06.285Z,72.61
2022-10-09T15:31:37.372Z,72.95
2022-10-09T15:34:05.129Z,72.76
2022-10-09T15:36:35.390Z,72.92
2022-10-09T15:39:05.387Z,73.15
2022-10-09T15:41:34.473Z,73.09
2022-10-09T15:44:03.633Z,73.33
2022-10-09T15:46:30.721Z,73.35
2022-10-09T15:48:57.601Z,73.50
2022-10-09T15:51:24.895Z,73.86
2022-10-09T15:53:52.282Z,74.42
2022-10-09T15:56:22.958Z,74.48
2022-10-09T15:58:50.977Z,75.37
2022-10-09T16:01:18.832Z,75.76
2022-10-09T16:03:46.227Z,76.09
2022-10-09T16:06:15.180Z,76.09
2022-10-09T16:08:42.605Z,75.90
2022-10-09T16:11:12.042Z,75.68
2022-10-09T16:13:40.493Z,75.78
2022-10-09T16:16:09.425Z,75.77
2022-10-09T16:18:36.064Z,75.76
2022-10-09T16:21:10.662Z,75.60
2022-10-09T16:23:36.948Z,76.01
2022-10-09T16:26:03.949Z,76.10
2022-10-09T16:28:30.865Z,76.32
2022-10-09T16:30:57.569Z,76.43
2022-10-09T16:33:23.778Z,77.14
2022-10-09T16:35:50.045Z,77.66
2022-10-09T16:38:17.168Z,77.93
2022-10-09T16:41:03.769Z,78.15
2022-10-09T16:43:33.812Z,78.26
2022-10-09T16:46:16.208Z,78.04
2022-10-09T16:48:42.436Z,77.80
2022-10-09T16:51:13.067Z,77.82
2022-10-09T16:53:39.964Z,78.00
2022-10-09T16:56:16.973Z,77.89
2022-10-09T16:58:43.205Z,77.80
2022-10-09T17:01:10.666Z,77.80
2022-10-09T17:03:39.728Z,78.15
2022-10-09T17:06:12.158Z,78.14
2022-10-09T17:08:38.675Z,78.84
2022-10-09T17:11:07.161Z,79.28
2022-10-09T17:13:33.424Z,79.56
2022-10-09T17:15:59.777Z,79.60
2022-10-09T17:18:26.216Z,79.78
2022-10-09T17:20:52.443Z,79.62
2022-10-09T17:23:18.604Z,79.18
2022-10-09T17:25:45.167Z,79.31
2022-10-09T17:28:11.449Z,79.63
2022-10-09T17:30:39.944Z,79.47
2022-10-09T17:33:06.599Z,79.09
2022-10-09T17:35:32.927Z,79.10
2022-10-09T17:37:59.086Z,79.55
2022-10-09T17:40:25.603Z,80.04
2022-10-09T17:42:51.968Z,80.21
2022-10-09T17:45:18.334Z,80.47
2022-10-09T17:47:44.508Z,80.60
2022-10-09T17:50:10.930Z,80.50
2022-10-09T17:52:37.174Z,80.63
2022-10-09T17:55:04.316Z,80.31
2022-10-09T17:57:30.596Z,80.23
2022-10-09T17:59:56.790Z,80.03
2022-10-09T18:02:23.064Z,80.04
2022-10-09T18:04:49.247Z,79.95
2022-10-09T18:07:18.849Z,79.94
2022-10-09T18:09:44.940Z,79.92
2022-10-09T18:12:11.122Z,79.99
2022-10-09T18:14:37.354Z,79.82
2022-10-09T18:17:03.535Z,79.80
2022-10-09T18:19:29.744Z,80.34
2022-10-09T18:21:55.994Z,80.73
2022-10-09T18:24:22.153Z,80.99
2022-10-09T18:26:48.444Z,81.34
2022-10-09T18:29:14.756Z,81.56
2022-10-09T18:31:40.963Z,81.41
2022-10-09T18:34:08.796Z,81.27
2022-10-09T18:36:35.573Z,81.13
2022-10-09T18:39:08.849Z,80.92
2022-10-09T18:41:36.655Z,80.80
2022-10-09T18:44:04.074Z,80.78
2022-10-09T18:46:37.068Z,80.79
2022-10-09T18:49:09.182Z,80.85
2022-10-09T18:51:38.281Z,80.77
2022-10-09T18:54:06.801Z,80.73
2022-10-09T18:56:35.483Z,80.83
2022-10-09T18:59:06.278Z,80.81
2022-10-09T19:01:32.662Z,81.25
2022-10-09T19:03:59.305Z,81.69
2022-10-09T19:06:25.629Z,82.04
2022-10-09T19:08:52.692Z,82.12
2022-10-09T19:11:18.962Z,82.33
2022-10-09T19:13:45.529Z,82.13
2022-10-09T19:16:11.757Z,81.96
2022-10-09T19:18:38.738Z,81.57
2022-10-09T19:21:05.308Z,81.48
2022-10-09T19:23:31.518Z,81.61
2022-10-09T19:25:59.048Z,81.63
2022-10-09T19:28:30.036Z,81.07
2022-10-09T19:30:56.531Z,81.04
2022-10-09T19:33:22.816Z,81.45
2022-10-09T19:35:51.792Z,81.19
2022-10-09T19:38:18.755Z,81.41
2022-10-09T19:40:45.984Z,81.07
2022-10-09T19:43:13.402Z,81.41
2022-10-09T19:45:40.589Z,81.86
2022-10-09T19:48:06.894Z,82.34
2022-10-09T19:50:33.689Z,82.62
2022-10-09T19:53:02.537Z,82.61
2022-10-09T19:55:31.932Z,82.70
2022-10-09T19:57:58.358Z,82.41
2022-10-09T20:00:25.868Z,82.45
2022-10-09T20:02:52.822Z,82.13
2022-10-09T20:05:19.566Z,81.90
2022-10-09T20:07:45.760Z,82.22
2022-10-09T20:10:11.965Z,81.80
2022-10-09T20:12:38.146Z,81.95
2022-10-09T20:15:04.830Z,81.59
2022-10-09T20:17:31.143Z,81.69
2022-10-09T20:19:57.375Z,81.66
2022-10-09T20:22:23.512Z,81.89
2022-10-09T20:24:52.751Z,82.91
2022-10-09T20:27:19.276Z,82.78
2022-10-09T20:29:45.521Z,82.37
2022-10-09T20:32:11.885Z,82.82
2022-10-09T20:34:38.139Z,82.87
2022-10-09T20:37:04.378Z,82.62
2022-10-09T20:39:30.707Z,82.74
2022-10-09T20:41:56.970Z,82.54
2022-10-09T20:44:23.148Z,82.73
2022-10-09T20:46:49.358Z,82.12
2022-10-09T20:49:15.680Z,81.88
2022-10-09T20:51:42.395Z,81.74
2022-10-09T20:54:15.469Z,82.02
2022-10-09T20:56:43.677Z,82.39
2022-10-09T20:59:10.441Z,82.40
2022-10-09T21:01:36.827Z,82.47
2022-10-09T21:04:04.093Z,82.77
2022-10-09T21:06:30.775Z,83.26
2022-10-09T21:08:57.506Z,83.29
2022-10-09T21:11:24.541Z,83.73
2022-10-09T21:13:51.300Z,83.55
2022-10-09T21:16:20.841Z,83.56
2022-10-09T21:18:47.635Z,83.24
2022-10-09T21:21:16.379Z,83.22
2022-10-09T21:23:43.825Z,83.05
2022-10-09T21:26:12.749Z,82.93
2022-10-09T21:28:39.010Z,83.26
2022-10-09T21:31:15.327Z,82.88
2022-10-09T21:33:42.057Z,83.28
2022-10-09T21:36:17.173Z,83.68
2022-10-09T21:38:43.333Z,83.87
2022-10-09T21:41:09.767Z,83.98
2022-10-09T21:43:35.961Z,84.16
2022-10-09T21:46:02.141Z,84.07
2022-10-09T21:48:28.498Z,84.14
2022-10-09T21:50:56.146Z,84.23
2022-10-09T21:53:22.280Z,84.76
2022-10-09T21:55:48.687Z,83.42
2022-10-09T21:58:14.866Z,83.67
2022-10-09T22:00:41.119Z,83.04
2022-10-09T22:03:07.247Z,83.08
2022-10-09T22:05:33.473Z,82.94
2022-10-09T22:07:59.699Z,82.85
2022-10-09T22:10:25.849Z,82.94
2022-10-09T22:12:52.489Z,82.87
2022-10-09T22:15:19.035Z,82.98
2022-10-09T22:17:45.243Z,83.10
2022-10-09T22:20:12.349Z,83.59
2022-10-09T22:22:38.535Z,83.69
2022-10-09T22:25:07.381Z,84.09
2022-10-09T22:27:33.637Z,84.18
2022-10-09T22:29:59.790Z,84.35
2022-10-09T22:32:26.053Z,83.82
2022-10-09T22:34:52.494Z,83.44
2022-10-09T22:37:18.645Z,83.05
2022-10-09T22:39:44.916Z,83.41
2022-10-09T22:42:11.220Z,83.46
2022-10-09T22:44:37.432Z,83.27
2022-10-09T22:47:03.642Z,83.79
2022-10-09T22:49:29.791Z,83.56
2022-10-09T22:51:56.159Z,83.98
2022-10-09T22:54:22.421Z,85.72
2022-10-09T22:56:48.691Z,85.31
2022-10-09T22:59:17.379Z,84.74
2022-10-09T23:01:52.756Z,84.78
2022-10-09T23:04:20.774Z,84.52
2022-10-09T23:06:50.789Z,84.37
2022-10-09T23:09:18.105Z,84.39
2022-10-09T23:11:44.454Z,83.95
2022-10-09T23:14:11.939Z,84.07
2022-10-09T23:16:38.160Z,83.66
2022-10-09T23:19:06.986Z,83.48
2022-10-09T23:21:35.290Z,83.33
2022-10-09T23:24:01.528Z,83.50
2022-10-09T23:26:30.398Z,83.04
2022-10-09T23:28:59.596Z,83.19
2022-10-09T23:31:27.243Z,83.75
2022-10-09T23:33:54.170Z,84.21
2022-10-09T23:36:23.474Z,83.99
2022-10-09T23:38:50.091Z,84.47
2022-10-09T23:41:19.078Z,84.30
2022-10-09T23:43:46.889Z,84.50
2022-10-09T23:46:16.572Z,84.62
2022-10-09T23:48:43.480Z,84.28
2022-10-09T23:51:10.367Z,84.09
2022-10-09T23:53:37.039Z,83.78
2022-10-09T23:56:19.800Z,83.53
2022-10-09T23:58:46.879Z,83.49
